sensor_id;sensor_type;location;lat;lon;timestamp;pressure;altitude;pressure_sealevel;temperature
69704;BMP280;56967;43.538;-5.646;2022-11-20T00:00:43;101801.97;;;21.50
69704;BMP280;56967;43.538;-5.646;2022-11-20T00:03:09;101799.06;;;21.61
69704;BMP280;56967;43.538;-5.646;2022-11-20T00:05:34;101792.56;;;21.47
69704;BMP280;56967;43.538;-5.646;2022-11-20T00:08:00;101792.19;;;22.21
69704;BMP280;56967;43.538;-5.646;2022-11-20T00:10:28;101795.25;;;21.47
69704;BMP280;56967;43.538;-5.646;2022-11-20T00:12:53;101801.97;;;21.55
69704;BMP280;56967;43.538;-5.646;2022-11-20T00:15:19;101795.03;;;21.59
69704;BMP280;56967;43.538;-5.646;2022-11-20T00:17:44;101800.00;;;21.30
69704;BMP280;56967;43.538;-5.646;2022-11-20T00:20:10;101797.72;;;21.64
69704;BMP280;56967;43.538;-5.646;2022-11-20T00:22:36;101797.72;;;21.69
69704;BMP280;56967;43.538;-5.646;2022-11-20T00:25:01;101801.00;;;22.67
69704;BMP280;56967;43.538;-5.646;2022-11-20T00:27:27;101799.94;;;22.12
69704;BMP280;56967;43.538;-5.646;2022-11-20T00:29:52;101806.34;;;22.06
69704;BMP280;56967;43.538;-5.646;2022-11-20T00:32:18;101803.94;;;21.85
69704;BMP280;56967;43.538;-5.646;2022-11-20T00:34:44;101802.06;;;22.35
69704;BMP280;56967;43.538;-5.646;2022-11-20T00:37:09;101795.59;;;21.81
69704;BMP280;56967;43.538;-5.646;2022-11-20T00:39:35;101785.50;;;21.98
69704;BMP280;56967;43.538;-5.646;2022-11-20T00:42:00;101785.97;;;21.95
69704;BMP280;56967;43.538;-5.646;2022-11-20T00:44:26;101783.06;;;21.97
69704;BMP280;56967;43.538;-5.646;2022-11-20T00:46:51;101783.59;;;21.89
69704;BMP280;56967;43.538;-5.646;2022-11-20T00:49:17;101777.63;;;21.51
69704;BMP280;56967;43.538;-5.646;2022-11-20T00:51:42;101780.75;;;21.33
69704;BMP280;56967;43.538;-5.646;2022-11-20T00:54:08;101783.34;;;21.13
69704;BMP280;56967;43.538;-5.646;2022-11-20T00:56:33;101788.66;;;21.70
69704;BMP280;56967;43.538;-5.646;2022-11-20T00:58:59;101779.84;;;21.74
69704;BMP280;56967;43.538;-5.646;2022-11-20T01:01:26;101778.22;;;21.84
69704;BMP280;56967;43.538;-5.646;2022-11-20T01:03:56;101781.72;;;22.19
69704;BMP280;56967;43.538;-5.646;2022-11-20T01:06:25;101783.03;;;22.22
69704;BMP280;56967;43.538;-5.646;2022-11-20T01:08:53;101777.13;;;22.70
69704;BMP280;56967;43.538;-5.646;2022-11-20T01:11:21;101779.72;;;23.00
69704;BMP280;56967;43.538;-5.646;2022-11-20T01:13:48;101773.69;;;22.29
69704;BMP280;56967;43.538;-5.646;2022-11-20T01:16:23;101773.72;;;23.13
69704;BMP280;56967;43.538;-5.646;2022-11-20T01:18:50;101769.59;;;23.36
69704;BMP280;56967;43.538;-5.646;2022-11-20T01:21:22;101766.88;;;22.82
69704;BMP280;56967;43.538;-5.646;2022-11-20T01:23:49;101758.72;;;21.98
69704;BMP280;56967;43.538;-5.646;2022-11-20T01:26:23;101761.03;;;22.65
69704;BMP280;56967;43.538;-5.646;2022-11-20T01:28:50;101759.06;;;22.96
69704;BMP280;56967;43.538;-5.646;2022-11-20T01:31:19;101761.06;;;23.29
69704;BMP280;56967;43.538;-5.646;2022-11-20T01:33:47;101754.88;;;23.28
69704;BMP280;56967;43.538;-5.646;2022-11-20T01:36:14;101761.25;;;22.79
69704;BMP280;56967;43.538;-5.646;2022-11-20T01:38:40;101757.56;;;22.54
69704;BMP280;56967;43.538;-5.646;2022-11-20T01:41:07;101767.13;;;22.91
69704;BMP280;56967;43.538;-5.646;2022-11-20T01:43:33;101769.56;;;22.82
69704;BMP280;56967;43.538;-5.646;2022-11-20T01:46:17;101767.66;;;24.19
69704;BMP280;56967;43.538;-5.646;2022-11-20T01:51:54;101765.69;;;23.08
69704;BMP280;56967;43.538;-5.646;2022-11-20T01:54:42;101771.41;;;22.92
69704;BMP280;56967;43.538;-5.646;2022-11-20T01:57:10;101775.72;;;22.83
69704;BMP280;56967;43.538;-5.646;2022-11-20T01:59:44;101773.03;;;22.83
69704;BMP280;56967;43.538;-5.646;2022-11-20T02:02:12;101764.03;;;23.71
69704;BMP280;56967;43.538;-5.646;2022-11-20T02:04:38;101767.31;;;23.04
69704;BMP280;56967;43.538;-5.646;2022-11-20T02:07:04;101760.03;;;22.11
69704;BMP280;56967;43.538;-5.646;2022-11-20T02:09:30;101757.34;;;22.16
69704;BMP280;56967;43.538;-5.646;2022-11-20T02:11:57;101762.13;;;21.99
69704;BMP280;56967;43.538;-5.646;2022-11-20T02:14:23;101764.31;;;22.32
69704;BMP280;56967;43.538;-5.646;2022-11-20T02:16:50;101764.38;;;23.11
69704;BMP280;56967;43.538;-5.646;2022-11-20T02:19:26;101757.56;;;22.54
69704;BMP280;56967;43.538;-5.646;2022-11-20T02:24:35;101748.81;;;23.08
69704;BMP280;56967;43.538;-5.646;2022-11-20T02:27:07;101752.94;;;23.44
69704;BMP280;56967;43.538;-5.646;2022-11-20T02:29:42;101746.41;;;24.46
69704;BMP280;56967;43.538;-5.646;2022-11-20T02:34:52;101748.34;;;24.64
69704;BMP280;56967;43.538;-5.646;2022-11-20T02:37:17;101749.94;;;24.13
69704;BMP280;56967;43.538;-5.646;2022-11-20T02:39:46;101747.34;;;24.08
69704;BMP280;56967;43.538;-5.646;2022-11-20T02:42:12;101751.09;;;24.36
69704;BMP280;56967;43.538;-5.646;2022-11-20T02:44:37;101744.09;;;24.58
69704;BMP280;56967;43.538;-5.646;2022-11-20T02:47:03;101733.16;;;25.15
69704;BMP280;56967;43.538;-5.646;2022-11-20T02:49:28;101735.31;;;25.13
69704;BMP280;56967;43.538;-5.646;2022-11-20T02:51:54;101737.56;;;24.17
69704;BMP280;56967;43.538;-5.646;2022-11-20T02:54:19;101726.72;;;24.74
69704;BMP280;56967;43.538;-5.646;2022-11-20T02:56:45;101735.19;;;24.39
69704;BMP280;56967;43.538;-5.646;2022-11-20T02:59:10;101729.72;;;23.92
69704;BMP280;56967;43.538;-5.646;2022-11-20T03:01:36;101731.47;;;23.44
69704;BMP280;56967;43.538;-5.646;2022-11-20T03:04:03;101733.16;;;23.69
69704;BMP280;56967;43.538;-5.646;2022-11-20T03:06:28;101729.09;;;24.00
69704;BMP280;56967;43.538;-5.646;2022-11-20T03:08:54;101733.66;;;23.99
69704;BMP280;56967;43.538;-5.646;2022-11-20T03:11:20;101733.09;;;24.31
69704;BMP280;56967;43.538;-5.646;2022-11-20T03:13:45;101729.59;;;24.36
69704;BMP280;56967;43.538;-5.646;2022-11-20T03:16:13;101725.28;;;25.19
69704;BMP280;56967;43.538;-5.646;2022-11-20T03:18:40;101723.00;;;24.70
69704;BMP280;56967;43.538;-5.646;2022-11-20T03:21:07;101712.00;;;25.41
69704;BMP280;56967;43.538;-5.646;2022-11-20T03:23:33;101709.22;;;25.78
69704;BMP280;56967;43.538;-5.646;2022-11-20T03:26:10;101710.34;;;24.71
69704;BMP280;56967;43.538;-5.646;2022-11-20T03:28:36;101701.75;;;24.69
69704;BMP280;56967;43.538;-5.646;2022-11-20T03:31:22;101700.34;;;24.29
69704;BMP280;56967;43.538;-5.646;2022-11-20T03:33:47;101690.66;;;25.31
69704;BMP280;56967;43.538;-5.646;2022-11-20T03:36:15;101696.13;;;24.23
69704;BMP280;56967;43.538;-5.646;2022-11-20T03:38:41;101692.91;;;24.21
69704;BMP280;56967;43.538;-5.646;2022-11-20T03:41:18;101699.13;;;24.16
69704;BMP280;56967;43.538;-5.646;2022-11-20T03:43:48;101708.91;;;24.55
69704;BMP280;56967;43.538;-5.646;2022-11-20T03:46:14;101710.97;;;24.63
69704;BMP280;56967;43.538;-5.646;2022-11-20T03:48:39;101705.03;;;24.42
69704;BMP280;56967;43.538;-5.646;2022-11-20T03:51:12;101720.91;;;24.15
69704;BMP280;56967;43.538;-5.646;2022-11-20T03:53:39;101719.13;;;24.58
69704;BMP280;56967;43.538;-5.646;2022-11-20T03:56:05;101725.28;;;24.35
69704;BMP280;56967;43.538;-5.646;2022-11-20T03:58:32;101724.94;;;24.41
69704;BMP280;56967;43.538;-5.646;2022-11-20T04:01:04;101725.88;;;24.26
69704;BMP280;56967;43.538;-5.646;2022-11-20T04:03:30;101729.22;;;25.59
69704;BMP280;56967;43.538;-5.646;2022-11-20T04:06:01;101729.50;;;25.25
69704;BMP280;56967;43.538;-5.646;2022-11-20T04:08:28;101743.25;;;25.42
69704;BMP280;56967;43.538;-5.646;2022-11-20T04:10:54;101743.25;;;25.23
69704;BMP280;56967;43.538;-5.646;2022-11-20T04:13:19;101741.69;;;25.55
69704;BMP280;56967;43.538;-5.646;2022-11-20T04:15:44;101743.16;;;25.66
69704;BMP280;56967;43.538;-5.646;2022-11-20T04:18:10;101753.56;;;25.54
69704;BMP280;56967;43.538;-5.646;2022-11-20T04:20:35;101763.16;;;25.41
69704;BMP280;56967;43.538;-5.646;2022-11-20T04:23:01;101768.19;;;25.48
69704;BMP280;56967;43.538;-5.646;2022-11-20T04:25:26;101766.09;;;25.45
69704;BMP280;56967;43.538;-5.646;2022-11-20T04:27:52;101766.38;;;25.43
69704;BMP280;56967;43.538;-5.646;2022-11-20T04:30:17;101762.13;;;25.74
69704;BMP280;56967;43.538;-5.646;2022-11-20T04:32:43;101759.25;;;25.52
69704;BMP280;56967;43.538;-5.646;2022-11-20T04:35:08;101762.06;;;25.61
69704;BMP280;56967;43.538;-5.646;2022-11-20T04:37:34;101758.91;;;25.72
69704;BMP280;56967;43.538;-5.646;2022-11-20T04:39:59;101758.53;;;25.79
69704;BMP280;56967;43.538;-5.646;2022-11-20T04:42:25;101759.09;;;25.62
69704;BMP280;56967;43.538;-5.646;2022-11-20T04:44:53;101758.66;;;25.37
69704;BMP280;56967;43.538;-5.646;2022-11-20T04:47:19;101766.56;;;25.09
69704;BMP280;56967;43.538;-5.646;2022-11-20T04:49:45;101756.53;;;24.54
69704;BMP280;56967;43.538;-5.646;2022-11-20T04:52:11;101762.00;;;24.68
69704;BMP280;56967;43.538;-5.646;2022-11-20T04:54:36;101755.25;;;24.94
69704;BMP280;56967;43.538;-5.646;2022-11-20T04:57:02;101753.97;;;24.86
69704;BMP280;56967;43.538;-5.646;2022-11-20T04:59:27;101754.38;;;24.98
69704;BMP280;56967;43.538;-5.646;2022-11-20T05:01:53;101755.28;;;25.12
69704;BMP280;56967;43.538;-5.646;2022-11-20T05:04:18;101753.00;;;25.38
69704;BMP280;56967;43.538;-5.646;2022-11-20T05:06:44;101761.19;;;25.47
69704;BMP280;56967;43.538;-5.646;2022-11-20T05:09:11;101765.16;;;25.68
69704;BMP280;56967;43.538;-5.646;2022-11-20T05:11:37;101759.84;;;25.49
69704;BMP280;56967;43.538;-5.646;2022-11-20T05:14:02;101759.66;;;25.41
69704;BMP280;56967;43.538;-5.646;2022-11-20T05:16:28;101773.94;;;25.92
69704;BMP280;56967;43.538;-5.646;2022-11-20T05:18:55;101775.16;;;25.99
69704;BMP280;56967;43.538;-5.646;2022-11-20T05:21:21;101773.75;;;25.70
69704;BMP280;56967;43.538;-5.646;2022-11-20T05:23:47;101771.06;;;25.19
69704;BMP280;56967;43.538;-5.646;2022-11-20T05:26:15;101784.31;;;25.53
69704;BMP280;56967;43.538;-5.646;2022-11-20T05:28:41;101800.22;;;25.12
69704;BMP280;56967;43.538;-5.646;2022-11-20T05:31:08;101805.16;;;25.23
69704;BMP280;56967;43.538;-5.646;2022-11-20T05:33:35;101815.03;;;24.67
69704;BMP280;56967;43.538;-5.646;2022-11-20T05:36:04;101821.09;;;24.78
69704;BMP280;56967;43.538;-5.646;2022-11-20T05:38:30;101829.31;;;24.86
69704;BMP280;56967;43.538;-5.646;2022-11-20T05:41:03;101851.69;;;25.29
69704;BMP280;56967;43.538;-5.646;2022-11-20T05:43:31;101872.13;;;24.83
69704;BMP280;56967;43.538;-5.646;2022-11-20T05:45:57;101874.69;;;24.69
69704;BMP280;56967;43.538;-5.646;2022-11-20T05:48:23;101887.66;;;26.26
69704;BMP280;56967;43.538;-5.646;2022-11-20T05:50:48;101893.16;;;25.04
69704;BMP280;56967;43.538;-5.646;2022-11-20T05:53:14;101901.25;;;24.13
69704;BMP280;56967;43.538;-5.646;2022-11-20T05:55:39;101894.94;;;25.75
69704;BMP280;56967;43.538;-5.646;2022-11-20T05:58:05;101908.19;;;24.19
69704;BMP280;56967;43.538;-5.646;2022-11-20T06:00:30;101913.97;;;24.03
69704;BMP280;56967;43.538;-5.646;2022-11-20T06:02:56;101910.44;;;23.59
69704;BMP280;56967;43.538;-5.646;2022-11-20T06:05:22;101909.53;;;23.83
69704;BMP280;56967;43.538;-5.646;2022-11-20T06:07:47;101898.03;;;23.68
69704;BMP280;56967;43.538;-5.646;2022-11-20T06:10:13;101900.16;;;24.53
69704;BMP280;56967;43.538;-5.646;2022-11-20T06:12:39;101905.56;;;24.14
69704;BMP280;56967;43.538;-5.646;2022-11-20T06:15:05;101903.97;;;23.70
69704;BMP280;56967;43.538;-5.646;2022-11-20T06:17:30;101896.97;;;23.69
69704;BMP280;56967;43.538;-5.646;2022-11-20T06:19:56;101885.78;;;24.91
69704;BMP280;56967;43.538;-5.646;2022-11-20T06:22:22;101887.16;;;23.98
69704;BMP280;56967;43.538;-5.646;2022-11-20T06:24:47;101887.41;;;23.48
69704;BMP280;56967;43.538;-5.646;2022-11-20T06:27:13;101886.53;;;24.06
69704;BMP280;56967;43.538;-5.646;2022-11-20T06:29:38;101881.22;;;24.63
69704;BMP280;56967;43.538;-5.646;2022-11-20T06:32:04;101883.44;;;24.22
69704;BMP280;56967;43.538;-5.646;2022-11-20T06:34:29;101883.13;;;25.34
69704;BMP280;56967;43.538;-5.646;2022-11-20T06:36:55;101885.94;;;24.14
69704;BMP280;56967;43.538;-5.646;2022-11-20T06:39:20;101895.25;;;24.55
69704;BMP280;56967;43.538;-5.646;2022-11-20T06:41:46;101885.44;;;25.22
69704;BMP280;56967;43.538;-5.646;2022-11-20T06:44:11;101890.94;;;25.54
69704;BMP280;56967;43.538;-5.646;2022-11-20T06:46:37;101900.16;;;24.77
69704;BMP280;56967;43.538;-5.646;2022-11-20T06:49:02;101899.91;;;24.16
69704;BMP280;56967;43.538;-5.646;2022-11-20T06:51:28;101910.72;;;23.57
69704;BMP280;56967;43.538;-5.646;2022-11-20T06:53:53;101911.16;;;24.18
69704;BMP280;56967;43.538;-5.646;2022-11-20T06:56:19;101907.34;;;24.29
69704;BMP280;56967;43.538;-5.646;2022-11-20T06:58:45;101926.69;;;23.82
69704;BMP280;56967;43.538;-5.646;2022-11-20T07:01:12;101917.59;;;24.22
69704;BMP280;56967;43.538;-5.646;2022-11-20T07:03:38;101917.47;;;23.98
69704;BMP280;56967;43.538;-5.646;2022-11-20T07:06:05;101924.50;;;25.19
69704;BMP280;56967;43.538;-5.646;2022-11-20T07:08:31;101927.91;;;24.72
69704;BMP280;56967;43.538;-5.646;2022-11-20T07:11:01;101930.94;;;25.42
69704;BMP280;56967;43.538;-5.646;2022-11-20T07:13:28;101930.56;;;24.77
69704;BMP280;56967;43.538;-5.646;2022-11-20T07:15:54;101941.94;;;24.69
69704;BMP280;56967;43.538;-5.646;2022-11-20T07:18:19;101935.84;;;24.59
69704;BMP280;56967;43.538;-5.646;2022-11-20T07:20:45;101929.63;;;24.63
69704;BMP280;56967;43.538;-5.646;2022-11-20T07:23:11;101944.06;;;24.72
69704;BMP280;56967;43.538;-5.646;2022-11-20T07:25:36;101936.34;;;24.94
69704;BMP280;56967;43.538;-5.646;2022-11-20T07:28:02;101948.06;;;25.08
69704;BMP280;56967;43.538;-5.646;2022-11-20T07:30:27;101955.13;;;23.93
69704;BMP280;56967;43.538;-5.646;2022-11-20T07:32:54;101967.69;;;24.08
69704;BMP280;56967;43.538;-5.646;2022-11-20T07:35:19;101978.28;;;24.33
69704;BMP280;56967;43.538;-5.646;2022-11-20T07:37:45;101986.03;;;24.40
69704;BMP280;56967;43.538;-5.646;2022-11-20T07:40:12;101994.25;;;24.14
69704;BMP280;56967;43.538;-5.646;2022-11-20T07:42:37;101986.06;;;25.91
69704;BMP280;56967;43.538;-5.646;2022-11-20T07:45:03;102006.47;;;25.08
69704;BMP280;56967;43.538;-5.646;2022-11-20T07:47:35;102001.38;;;25.30
69704;BMP280;56967;43.538;-5.646;2022-11-20T07:50:00;102000.88;;;25.23
69704;BMP280;56967;43.538;-5.646;2022-11-20T07:52:26;102011.41;;;25.48
69704;BMP280;56967;43.538;-5.646;2022-11-20T07:54:51;102020.97;;;26.01
69704;BMP280;56967;43.538;-5.646;2022-11-20T07:57:16;102032.13;;;25.95
69704;BMP280;56967;43.538;-5.646;2022-11-20T07:59:42;102044.16;;;25.03
69704;BMP280;56967;43.538;-5.646;2022-11-20T08:02:10;102048.69;;;25.12
69704;BMP280;56967;43.538;-5.646;2022-11-20T08:04:36;102057.19;;;25.19
69704;BMP280;56967;43.538;-5.646;2022-11-20T08:07:01;102061.66;;;25.05
69704;BMP280;56967;43.538;-5.646;2022-11-20T08:09:27;102065.81;;;26.35
69704;BMP280;56967;43.538;-5.646;2022-11-20T08:11:54;102071.88;;;25.61
69704;BMP280;56967;43.538;-5.646;2022-11-20T08:14:38;102079.25;;;25.50
69704;BMP280;56967;43.538;-5.646;2022-11-20T08:17:03;102071.88;;;26.27
69704;BMP280;56967;43.538;-5.646;2022-11-20T08:19:29;102075.66;;;24.25
69704;BMP280;56967;43.538;-5.646;2022-11-20T08:21:55;102065.91;;;25.64
69704;BMP280;56967;43.538;-5.646;2022-11-20T08:24:20;102075.97;;;25.77
69704;BMP280;56967;43.538;-5.646;2022-11-20T08:26:46;102083.94;;;26.85
69704;BMP280;56967;43.538;-5.646;2022-11-20T08:29:14;102084.88;;;27.21
69704;BMP280;56967;43.538;-5.646;2022-11-20T08:31:39;102070.00;;;25.85
69704;BMP280;56967;43.538;-5.646;2022-11-20T08:34:05;102081.16;;;25.21
69704;BMP280;56967;43.538;-5.646;2022-11-20T08:36:33;102080.28;;;25.54
69704;BMP280;56967;43.538;-5.646;2022-11-20T08:38:59;102086.66;;;26.66
69704;BMP280;56967;43.538;-5.646;2022-11-20T08:41:24;102106.25;;;24.78
69704;BMP280;56967;43.538;-5.646;2022-11-20T08:43:57;102108.81;;;24.98
69704;BMP280;56967;43.538;-5.646;2022-11-20T08:46:25;102112.81;;;25.00
69704;BMP280;56967;43.538;-5.646;2022-11-20T08:48:52;102111.47;;;24.59
69704;BMP280;56967;43.538;-5.646;2022-11-20T08:51:19;102129.69;;;25.45
69704;BMP280;56967;43.538;-5.646;2022-11-20T08:53:45;102126.09;;;25.26
69704;BMP280;56967;43.538;-5.646;2022-11-20T08:56:11;102131.88;;;25.66
69704;BMP280;56967;43.538;-5.646;2022-11-20T08:58:38;102115.13;;;27.50
69704;BMP280;56967;43.538;-5.646;2022-11-20T09:01:04;102122.25;;;28.00
69704;BMP280;56967;43.538;-5.646;2022-11-20T09:03:32;102126.72;;;28.76
69704;BMP280;56967;43.538;-5.646;2022-11-20T09:06:03;102139.06;;;27.70
69704;BMP280;56967;43.538;-5.646;2022-11-20T09:08:29;102139.69;;;27.94
69704;BMP280;56967;43.538;-5.646;2022-11-20T09:10:56;102141.13;;;28.14
69704;BMP280;56967;43.538;-5.646;2022-11-20T09:13:23;102141.75;;;28.47
69704;BMP280;56967;43.538;-5.646;2022-11-20T09:15:55;102155.66;;;28.89
69704;BMP280;56967;43.538;-5.646;2022-11-20T09:18:22;102148.97;;;28.02
69704;BMP280;56967;43.538;-5.646;2022-11-20T09:20:47;102155.94;;;28.66
69704;BMP280;56967;43.538;-5.646;2022-11-20T09:23:14;102145.34;;;28.34
69704;BMP280;56967;43.538;-5.646;2022-11-20T09:25:40;102137.97;;;26.61
69704;BMP280;56967;43.538;-5.646;2022-11-20T09:28:05;102143.38;;;26.61
69704;BMP280;56967;43.538;-5.646;2022-11-20T09:30:31;102148.06;;;26.56
69704;BMP280;56967;43.538;-5.646;2022-11-20T09:32:57;102149.22;;;26.31
69704;BMP280;56967;43.538;-5.646;2022-11-20T09:35:22;102152.28;;;26.43
69704;BMP280;56967;43.538;-5.646;2022-11-20T09:37:48;102158.25;;;26.22
69704;BMP280;56967;43.538;-5.646;2022-11-20T09:40:26;102149.25;;;27.00
69704;BMP280;56967;43.538;-5.646;2022-11-20T09:43:03;102159.03;;;27.29
69704;BMP280;56967;43.538;-5.646;2022-11-20T09:45:50;102161.00;;;27.82
69704;BMP280;56967;43.538;-5.646;2022-11-20T09:48:21;102168.34;;;28.09
69704;BMP280;56967;43.538;-5.646;2022-11-20T09:51:23;102179.13;;;28.36
69704;BMP280;56967;43.538;-5.646;2022-11-20T09:54:11;102178.53;;;27.98
69704;BMP280;56967;43.538;-5.646;2022-11-20T09:56:42;102178.19;;;27.46
69704;BMP280;56967;43.538;-5.646;2022-11-20T09:59:23;102181.44;;;28.87
69704;BMP280;56967;43.538;-5.646;2022-11-20T10:01:53;102179.78;;;28.77
69704;BMP280;56967;43.538;-5.646;2022-11-20T10:04:20;102191.78;;;29.07
69704;BMP280;56967;43.538;-5.646;2022-11-20T10:09:32;102206.69;;;27.84
69704;BMP280;56967;43.538;-5.646;2022-11-20T10:14:48;102204.59;;;27.81
69704;BMP280;56967;43.538;-5.646;2022-11-20T10:25:51;102207.03;;;29.25
69704;BMP280;56967;43.538;-5.646;2022-11-20T10:31:06;102217.13;;;31.43
69704;BMP280;56967;43.538;-5.646;2022-11-20T10:33:44;102214.03;;;31.07
69704;BMP280;56967;43.538;-5.646;2022-11-20T10:38:49;102222.97;;;29.27
69704;BMP280;56967;43.538;-5.646;2022-11-20T10:41:26;102217.03;;;31.22
69704;BMP280;56967;43.538;-5.646;2022-11-20T10:44:05;102219.28;;;31.20
69704;BMP280;56967;43.538;-5.646;2022-11-20T10:46:44;102224.78;;;30.35
69704;BMP280;56967;43.538;-5.646;2022-11-20T10:49:16;102230.75;;;29.89
69704;BMP280;56967;43.538;-5.646;2022-11-20T11:00:12;102192.84;;;30.41
69704;BMP280;56967;43.538;-5.646;2022-11-20T11:07:49;102196.63;;;31.45
69704;BMP280;56967;43.538;-5.646;2022-11-20T11:10:16;102201.56;;;30.97
69704;BMP280;56967;43.538;-5.646;2022-11-20T11:12:46;102202.06;;;31.08
69704;BMP280;56967;43.538;-5.646;2022-11-20T11:15:47;102182.63;;;30.72
69704;BMP280;56967;43.538;-5.646;2022-11-20T11:18:23;102180.06;;;30.32
69704;BMP280;56967;43.538;-5.646;2022-11-20T11:20:53;102178.16;;;29.60
69704;BMP280;56967;43.538;-5.646;2022-11-20T11:25:59;102183.53;;;28.68
69704;BMP280;56967;43.538;-5.646;2022-11-20T11:28:25;102174.84;;;28.08
69704;BMP280;56967;43.538;-5.646;2022-11-20T11:30:53;102174.94;;;27.89
69704;BMP280;56967;43.538;-5.646;2022-11-20T11:35:49;102160.97;;;28.72
69704;BMP280;56967;43.538;-5.646;2022-11-20T11:38:36;102165.16;;;28.65
69704;BMP280;56967;43.538;-5.646;2022-11-20T11:41:07;102164.97;;;28.61
69704;BMP280;56967;43.538;-5.646;2022-11-20T11:43:36;102169.03;;;29.47
69704;BMP280;56967;43.538;-5.646;2022-11-20T11:51:21;102168.63;;;27.94
69704;BMP280;56967;43.538;-5.646;2022-11-20T11:53:46;102164.72;;;28.13
69704;BMP280;56967;43.538;-5.646;2022-11-20T11:56:13;102174.53;;;27.69
69704;BMP280;56967;43.538;-5.646;2022-11-20T11:58:47;102173.13;;;28.12
69704;BMP280;56967;43.538;-5.646;2022-11-20T12:01:50;102165.31;;;29.04
69704;BMP280;56967;43.538;-5.646;2022-11-20T12:04:43;102166.63;;;27.86
69704;BMP280;56967;43.538;-5.646;2022-11-20T12:07:41;102163.91;;;28.49
69704;BMP280;56967;43.538;-5.646;2022-11-20T12:10:14;102154.59;;;29.30
69704;BMP280;56967;43.538;-5.646;2022-11-20T12:12:44;102148.16;;;29.56
69704;BMP280;56967;43.538;-5.646;2022-11-20T12:15:13;102146.28;;;29.26
69704;BMP280;56967;43.538;-5.646;2022-11-20T12:17:41;102134.78;;;29.60
69704;BMP280;56967;43.538;-5.646;2022-11-20T12:20:16;102131.41;;;29.54
69704;BMP280;56967;43.538;-5.646;2022-11-20T12:22:59;102129.38;;;29.29
69704;BMP280;56967;43.538;-5.646;2022-11-20T12:25:31;102118.75;;;28.58
69704;BMP280;56967;43.538;-5.646;2022-11-20T12:31:23;102106.31;;;28.79
69704;BMP280;56967;43.538;-5.646;2022-11-20T12:36:38;102088.81;;;30.74
69704;BMP280;56967;43.538;-5.646;2022-11-20T12:45:05;102084.09;;;29.77
69704;BMP280;56967;43.538;-5.646;2022-11-20T12:54:24;102088.56;;;30.50
69704;BMP280;56967;43.538;-5.646;2022-11-20T13:07:30;102051.72;;;29.81
69704;BMP280;56967;43.538;-5.646;2022-11-20T13:09:56;102058.38;;;29.66
69704;BMP280;56967;43.538;-5.646;2022-11-20T13:20:22;102037.22;;;29.94
69704;BMP280;56967;43.538;-5.646;2022-11-20T13:22:52;102037.72;;;29.23
69704;BMP280;56967;43.538;-5.646;2022-11-20T13:25:24;102030.88;;;28.86
69704;BMP280;56967;43.538;-5.646;2022-11-20T13:27:50;102031.88;;;28.90
69704;BMP280;56967;43.538;-5.646;2022-11-20T13:30:21;102016.75;;;30.05
69704;BMP280;56967;43.538;-5.646;2022-11-20T13:33:02;102008.19;;;29.04
69704;BMP280;56967;43.538;-5.646;2022-11-20T13:35:37;101996.59;;;30.31
69704;BMP280;56967;43.538;-5.646;2022-11-20T13:38:09;101975.44;;;28.92
69704;BMP280;56967;43.538;-5.646;2022-11-20T13:43:39;101953.69;;;27.91
69704;BMP280;56967;43.538;-5.646;2022-11-20T13:46:08;101965.88;;;28.25
69704;BMP280;56967;43.538;-5.646;2022-11-20T13:56:36;101974.00;;;29.93
69704;BMP280;56967;43.538;-5.646;2022-11-20T14:02:18;101972.19;;;29.20
69704;BMP280;56967;43.538;-5.646;2022-11-20T14:04:47;101982.56;;;28.49
69704;BMP280;56967;43.538;-5.646;2022-11-20T14:07:15;101992.66;;;28.57
69704;BMP280;56967;43.538;-5.646;2022-11-20T14:09:53;101999.88;;;28.70
69704;BMP280;56967;43.538;-5.646;2022-11-20T14:12:23;101995.72;;;28.94
69704;BMP280;56967;43.538;-5.646;2022-11-20T14:14:53;101990.97;;;29.08
69704;BMP280;56967;43.538;-5.646;2022-11-20T14:19:51;101998.03;;;28.04
69704;BMP280;56967;43.538;-5.646;2022-11-20T14:22:24;101988.53;;;26.89
69704;BMP280;56967;43.538;-5.646;2022-11-20T14:27:39;102017.22;;;27.80
69704;BMP280;56967;43.538;-5.646;2022-11-20T14:30:12;102011.88;;;28.25
69704;BMP280;56967;43.538;-5.646;2022-11-20T14:32:39;102015.03;;;27.69
69704;BMP280;56967;43.538;-5.646;2022-11-20T14:35:14;102001.03;;;28.47
69704;BMP280;56967;43.538;-5.646;2022-11-20T14:37:44;101985.00;;;29.71
69704;BMP280;56967;43.538;-5.646;2022-11-20T14:42:49;101988.84;;;28.97
69704;BMP280;56967;43.538;-5.646;2022-11-20T14:45:16;101979.50;;;27.75
69704;BMP280;56967;43.538;-5.646;2022-11-20T14:47:42;101976.34;;;27.82
69704;BMP280;56967;43.538;-5.646;2022-11-20T14:50:23;101971.53;;;27.43
69704;BMP280;56967;43.538;-5.646;2022-11-20T14:52:57;101983.13;;;27.93
69704;BMP280;56967;43.538;-5.646;2022-11-20T14:58:18;101987.25;;;27.00
69704;BMP280;56967;43.538;-5.646;2022-11-20T15:00:53;101988.75;;;27.61
69704;BMP280;56967;43.538;-5.646;2022-11-20T15:03:19;101993.56;;;27.23
69704;BMP280;56967;43.538;-5.646;2022-11-20T15:05:47;102000.94;;;27.58
69704;BMP280;56967;43.538;-5.646;2022-11-20T15:08:14;102006.25;;;28.43
69704;BMP280;56967;43.538;-5.646;2022-11-20T15:10:46;102012.44;;;28.35
69704;BMP280;56967;43.538;-5.646;2022-11-20T15:13:14;102004.81;;;28.98
69704;BMP280;56967;43.538;-5.646;2022-11-20T15:15:48;102004.66;;;28.73
69704;BMP280;56967;43.538;-5.646;2022-11-20T15:18:17;102003.47;;;27.14
69704;BMP280;56967;43.538;-5.646;2022-11-20T15:20:43;101999.25;;;28.20
69704;BMP280;56967;43.538;-5.646;2022-11-20T15:23:14;101997.09;;;28.53
69704;BMP280;56967;43.538;-5.646;2022-11-20T15:25:41;101982.38;;;27.79
69704;BMP280;56967;43.538;-5.646;2022-11-20T15:28:30;101984.28;;;27.78
69704;BMP280;56967;43.538;-5.646;2022-11-20T15:30:56;101982.94;;;27.89
69704;BMP280;56967;43.538;-5.646;2022-11-20T15:33:21;101967.75;;;27.44
69704;BMP280;56967;43.538;-5.646;2022-11-20T15:35:47;101969.75;;;26.98
69704;BMP280;56967;43.538;-5.646;2022-11-20T15:38:12;101966.06;;;26.94
69704;BMP280;56967;43.538;-5.646;2022-11-20T15:40:38;101946.03;;;26.68
69704;BMP280;56967;43.538;-5.646;2022-11-20T15:43:04;101948.06;;;27.03
69704;BMP280;56967;43.538;-5.646;2022-11-20T15:45:37;101945.25;;;27.35